• Join FlightAware (Why Join?)
  • Login
  • US Flag 
06:42AM EDT


 

Airport Tracker/Info


-or-


 

Live Flight TrackerFlight Track Log ✈ FLG4057 ✈ 16-May-2013 ✈ KRDU - KBDL

Flight Track Log - Related Links

Times and Time Zones

All times are in EDT time to prevent confusion due to time zone crossing. See the FLG4057 flight status page for this flight to view local times or setup timezone preferences in your user account.

Time Position Orientation Groundspeed Altitude Reporting Facility
EDT Latitude Longitude Course Direction KTS MPH feet Rate Location/Type
11:03AM 35.8583 -78.8058 82° East 163 188 1,200  Level Washington Center
11:04AM 35.7931 -78.8314 198° South 235 270 3,800 2,400 Climbing Washington Center
11:05AM 35.7414 -78.8061 158° South 294 338 6,200 2,580 Climbing Washington Center
11:06AM 35.7125 -78.7258 114° Southeast 304 350 8,600 2,280 Climbing Washington Center
11:07AM 35.9167 -78.2228 90° East  Level FlightAware Approximate
11:07AM 35.7567 -78.6250 62° Northeast 291 335 10,800  Level Washington Center
11:08AM 35.9333 -78.0820 90° East  Level FlightAware Approximate
11:08AM 35.8136 -78.5172 57° Northeast 320 368 12,000  Level Washington Center
11:09AM 35.9415 -77.9401 82° East  Level FlightAware Approximate
11:09AM 35.8503 -78.3828 71° East 389 448 13,200  Level Washington Center
11:10AM 35.8789 -78.2272 77° East 420 483 14,500 1,140 Climbing Washington Center
11:11AM 35.9025 -78.1000 77° East 433 498 15,500 1,140 Climbing Washington Center
11:12AM 35.9328 -77.9367 77° East 433 498 16,800 1,080 Climbing Washington Center
11:13AM 35.9583 -77.8064 76° East 433 498 17,800 1,080 Climbing Washington Center
11:14AM 36.0150 -77.6644 64° Northeast 418 481 19,000 1,140 Climbing Washington Center
11:15AM 36.1103 -77.5819 35° Northeast 395 455 20,100 1,140 Climbing Washington Center
11:16AM 36.2036 -77.4917 38° Northeast 403 464 21,300 1,140 Climbing Washington Center
11:17AM 36.3008 -77.4039 36° Northeast 415 478 22,400 900 Climbing Washington Center
11:18AM 36.3897 -77.3181 38° Northeast 415 478 23,200 780 Climbing Washington Center
11:19AM 36.4786 -77.2375 36° Northeast 420 483 24,000 780 Climbing Washington Center
11:20AM 36.5736 -77.1464 38° Northeast 420 483 24,800 780 Climbing Washington Center
11:21AM 36.6686 -77.0575 37° Northeast 420 483 25,600 780 Climbing Washington Center
11:22AM 36.7617 -76.9686 37° Northeast 420 483 26,400 660 Climbing Washington Center
11:23AM 36.8583 -76.8819 36° Northeast 420 483 27,000 240 Climbing Washington Center
11:24AM 36.9575 -76.7928 36° Northeast 420 483 27,000  Level Washington Center
11:25AM 37.0606 -76.7006 36° Northeast 434 499 27,000  Level Washington Center
11:26AM 37.1614 -76.6056 37° Northeast 446 513 27,000  Level Washington Center
11:27AM 37.2769 -76.5028 35° Northeast 461 531 27,000  Level Washington Center
11:28AM 37.3800 -76.4072 36° Northeast 461 531 27,000  Level Washington Center
11:29AM 37.4828 -76.3142 36° Northeast 455 524 27,000  Level Washington Center
11:30AM 37.5856 -76.2181 37° Northeast 455 524 27,000  Level Washington Center
11:31AM 37.6797 -76.1403 33° Northeast 455 524 27,000  Level Washington Center
11:32AM 37.7908 -76.0281 39° Northeast 455 524 27,000  Level Washington Center
11:33AM 37.8911 -75.9339 37° Northeast 460 529 27,000  Level Washington Center
11:34AM 37.9978 -75.8367 36° Northeast 460 529 27,000  Level Washington Center
11:35AM 38.0981 -75.7394 37° Northeast 455 524 27,000  Level Washington Center
11:36AM 38.2022 -75.6444 36° Northeast 455 524 27,000  Level Washington Center
11:37AM 38.3044 -75.5494 36° Northeast 455 524 27,000  Level Washington Center
11:38AM 38.4169 -75.4806 26° Northeast 453 521 27,000  Level Washington Center
11:39AM 38.5378 -75.4325 17° North 441 507 27,000  Level Washington Center
11:40AM 38.6589 -75.3817 18° North 446 513 27,000  Level Washington Center
11:41AM 38.7775 -75.3281 19° North 446 513 27,000  Level Washington Center
11:42AM 38.8814 -75.2344 35° Northeast 446 513 27,000  Level Washington Center
11:43AM 38.9833 -75.1350 37° Northeast 452 520 27,000  Level Washington Center
11:44AM 39.0869 -75.0328 37° Northeast 462 532 27,000  Level Washington Center
11:45AM 39.1908 -74.9300 37° Northeast 462 532 27,000  Level Washington Center
11:46AM 39.2944 -74.8300 37° Northeast 462 532 27,000  Level Washington Center
11:47AM 39.3978 -74.7269 38° Northeast 462 532 27,000  Level Washington Center
11:48AM 39.5033 -74.6206 38° Northeast 462 532 27,000  Level Washington Center
11:49AM 39.6044 -74.5197 38° Northeast 462 532 27,000  Level Washington Center
11:50AM 39.7119 -74.4128 37° Northeast 468 539 27,000  Level Washington Center
11:51AM 39.7889 -74.3342 38° Northeast 469 540 27,000  Level New York Center
11:52AM 39.8961 -74.2286 37° Northeast 461 531 27,000 -600 Level New York Center
11:53AM 40.0014 -74.1200 38° Northeast 472 543 25,900 -1,020 Descending New York Center
11:54AM 40.1108 -74.0086 38° Northeast 484 557 25,000 -480 Descending New York Center
11:55AM 40.2181 -73.9022 37° Northeast 484 557 25,000  Level New York Center
11:56AM 40.3144 -73.8033 38° Northeast 479 551 25,000  Level New York Center
11:57AM 40.4169 -73.6989 38° Northeast 479 551 25,000 -780 Level New York Center
11:59AM 40.6475 -73.4467 40° Northeast 469 540 22,500 -1,620 Descending Boston Center
12:00PM 40.7544 -73.3442 36° Northeast 474 545 19,900 -1,980 Descending Boston Center
12:01PM 40.8533 -73.2358 40° Northeast 466 536 18,600 -1,380 Descending Boston Center
12:03PM 40.9547 -73.1060 44° Northeast  Level FlightAware Approximate
12:03PM 41.0128 -73.0508 44° Northeast 394 453 15,900  Level Boston Center
12:04PM 41.0947 -72.9525 42° Northeast 387 445 14,400 -1,560 Descending Boston Center
12:05PM 41.1700 -72.8619 42° Northeast 383 441 13,000 -1,440 Descending Boston Center
12:06PM 41.2517 -72.7658 41° Northeast 377 434 11,600 -1,020 Descending Boston Center
12:07PM 41.3433 -72.7111 24° Northeast 330 380 10,900 -780 Descending Boston Center
12:08PM 41.4269 -72.6753 18° North 286 329 10,000 -840 Descending Boston Center
12:09PM 41.5019 -72.6425 18° North 289 333 9,200 -1,200 Descending Boston Center
12:10PM 41.5811 -72.6067 19° North 293 337 7,600 -1,620 Descending Boston Center
12:11PM 41.6542 -72.5789 16° North 273 314 6,000 -1,440 Descending Boston Center
12:12PM 41.7292 -72.5736 North 249 287 4,800 -1,680 Descending Boston Center
12:13PM 41.7958 -72.5878 351° North 253 291 2,600 -1,500 Descending Boston Center
12:14PM 41.8542 -72.5961 354° North 201 231 1,800 -660 Descending Boston Center
12:15PM 41.8856 -72.6269 324° Northwest 149 171 1,300 -540 Descending Boston Center